2015 5km Results by position

Pos.Bib NumberNameOfficial Time?Net Time?
15385Daniel Reeves00:17:4400:17:44
25190Tobin Mason00:20:2200:20:22
35206Liam Evans00:20:4300:20:43
45134Emma Saint-John00:20:4300:20:43
55361tom winkel00:20:4700:20:47
65256Isaac Bonsey00:21:2300:21:23
75277Craig Lawler00:21:3300:21:33
85380Denis Wall00:21:4400:21:44
95262Rafferty Arundel-Clarke00:21:5700:21:57
105003Steven McKeown00:22:1300:22:13
115352Shane cleaver00:22:2600:22:26
125470Nathan Watson00:22:3300:22:33
135100CHLOE BATES00:22:5700:22:57
145384Kobe Mclaren00:23:0500:23:05
155312Axel Murden00:23:1200:23:12
165383Andrew Lucas00:23:2300:23:23
175008Paul Tognoni00:23:3000:23:30
185129Matthew King00:23:4400:23:44
195373Kaye Madden00:23:5200:23:52
205364James Hourigan00:23:5300:23:53
215320Leon Murden00:23:5900:23:59
225382Nathan Baldock00:24:0800:24:08
235482Lachlan Brennan00:24:1400:24:14
245127Samuel Sartori00:24:1600:24:16
255455Alexander King00:24:3100:24:31
265029Billy Beard00:24:4500:24:45
275276Angus Paynter00:24:4700:24:47
285494Toby Cannell00:24:4800:24:48
295336Timothy Grey00:24:5900:24:59
305321Rachel Young00:25:0100:25:01
315032Lachlan Cahill00:25:1100:25:11
325292Keilan Lawler00:25:1500:25:15
335056Tali Brown00:25:2400:25:24
345240Ricky Brown00:25:2500:25:25
355474Lachlan Gaffney00:25:4200:25:42
365234chad nichols00:25:5700:25:57
375220Jamesson Hodgetts00:26:1500:26:15
385051Jaicam Kenzie00:26:2200:26:22
395337Bailey Grey00:26:3000:26:30
405447Jarrod Fidler00:26:3300:26:33
415322David Pilley00:26:3500:26:35
425233Chelsea Tuit00:26:3700:26:37
435101Stuart Edwards00:26:3900:26:39
445341Tanya Stokes00:26:3900:26:39
455372Taylor Nash00:26:4300:26:43
465264TREVOR LITTLE00:26:4400:26:44
475359Darren Bowles00:26:5100:26:51
485231Zoe Watt00:26:5100:26:51
495371Kate Hawley00:26:5800:26:58
505445Brandon Fidler00:26:5900:26:59
515351Brielle Daly00:27:0300:27:03
525350william cleaver00:27:0300:27:03
535096SCOTT JACKSON00:27:0500:27:05
545178Max Anderson00:27:1900:27:19
555267Trudy wilkie00:27:2000:27:20
565261Galahad Arundel-Clarke00:27:2300:27:23
575440Daniel Sturzaker00:27:2300:27:23
585368Charlotte Vandenberg00:27:3300:27:33
595390Tayla Hoiberg-Cox00:27:3700:27:37
605211Brady Jackson00:27:4900:27:49
615181Kelsey Anderson00:27:5800:27:58
625263Thylacine Arundel-Clarke00:28:0100:28:01
635467Riley Stubbs00:28:1400:28:14
645466Jamie Stubbs00:28:1400:28:14
655391Damien Hoiberg00:28:1800:28:18
665342Maddison Baxter00:28:2000:28:20
675254Rebecca Mitchelmore00:28:3000:28:30
685222liam polden00:28:3200:28:32
695219Rick Hodgetts00:28:4000:28:40
705456Dalton Stretton00:28:4000:28:40
715177Pirri Wiseman00:28:4200:28:42
725388Joanne Walsh00:28:4300:28:43
735480Corey Brennan00:28:4500:28:45
745315Mason Wright00:29:0000:29:00
755111Luka Cameron00:29:0400:29:04
765457Linda Breaden00:29:0400:29:04
775401Trevor Jones00:29:0400:29:04
785489Tom Gee00:29:0500:29:05
795453Jiao Wu00:29:0800:29:08
805452Jing Jin00:29:0800:29:08
815423Angela Wilson00:29:0900:29:09
825436Karina Mason00:29:1000:29:10
835473Jacob Gaffney00:29:2000:29:20
845465Christine Gaby00:29:2100:29:21
855469Maya Stubbs00:29:2100:29:21
865472Martin Gaffney00:29:2200:29:22
875257Tanya Bonsey00:29:2600:29:26
885374Bianca Atkins00:29:2600:29:26
895265Michael Harding00:29:2700:29:27
905291Piper Emmerton00:29:3800:29:38
915485William Henderson00:29:3800:29:38
925426Jaime McGregor00:29:3900:29:39
935305Tia Brown00:29:3900:29:39
945147Leon Duff00:29:4400:29:44
955331shannon kelly00:29:4700:29:47
965153Georgina Harvey00:29:4700:29:47
975363Cherinda Batchelor00:29:5400:29:54
985031Cameron Milne00:29:5500:29:55
995488Duncan Gee00:29:5600:29:56
1005369Sophie Hammond00:30:0300:30:03
1015046Miranda Kellett00:30:3200:30:32
1025038Bianka Harrison00:30:3300:30:33
1035412Maya Mitchell00:30:3700:30:37
1045413David Mitchell00:30:3700:30:37
1055182Karina Anderson00:30:4200:30:42
1065179Eimear Anderson00:30:4200:30:42
1075444Brady Cairns00:30:4700:30:47
1085443Jamie Cairns00:30:4900:30:49
1095314Debbie Boyer00:30:5100:30:51
1105223jack hingston00:30:5300:30:53
1115338James Downie00:30:5400:30:54
1125432Tania Williams00:30:5500:30:55
1135504Katrina 5404 Munday00:30:5500:30:55
1145437Sarah Swain00:30:5600:30:56
1155250Natalie Ashdown00:30:5600:30:56
1165054Kirsten Ogden00:30:5900:30:59
1175090Amber Sherriff00:31:0000:31:00
1185088Debbie Eastley00:31:0200:31:02
1195365Stacey Ambrose00:31:1000:31:10
1205251Andrew Ashdown00:31:2300:31:23
1215442Isabel Willaims00:31:3100:31:31
1225215REBECCA SMITH00:31:3200:31:32
1235345Peter Bird00:31:4900:31:49
1245095QUEEDA JACKSON00:32:0500:32:05
1255328Joanne White00:32:0900:32:09
1265260Martin Agatyn00:32:1200:32:12
1275228Bradley Clayton00:32:1800:32:18
1285013Renee Cleary00:32:1900:32:19
1295065Nikki Hiscock00:32:2000:32:20
1305411Ange Rouleston00:32:3100:32:31
1315173Julie Overall00:32:3400:32:34
1325149Tricia Wagner00:32:3700:32:37
1335417Cameron Muir00:32:3800:32:38
1345448Bronte Irvine00:32:3800:32:38
1355378William Philpott00:32:4500:32:45
1365273Brenda Dobson00:32:4600:32:46
1375247Louise Blume00:32:4900:32:49
1385121Toby Bailey00:32:5100:32:51
1395124Anita Watkinson00:32:5500:32:55
1405316Mark Wright00:33:0900:33:09
1415242Scott Donnelly00:33:1900:33:19
1425300Lisa Sharp00:33:2000:33:20
1435301Hayley cook00:33:2000:33:20
1445037Jillian French00:33:2400:33:24
1455362Ben Bray00:33:3600:33:36
1465353Teena Nielsen00:33:3600:33:36
1475326Wayne Kent00:33:4900:33:49
1485094PAUL BARRY00:33:5000:33:50
1495020HELEN YOUD00:33:5400:33:54
1505268Sarah Coe00:34:1200:34:12
1515012Jasmin Rollinson00:34:1500:34:15
1525421Maguire Pinner00:34:1600:34:16
1535130Caitlyn Angilley00:34:1900:34:19
1545164SARAH REYNIER00:34:2400:34:24
1555158EVE GR00:34:2600:34:26
1565377Jessica Blight00:34:2600:34:26
1575427Shane Chilcott00:34:5200:34:52
1585304Mia Hefford00:34:5900:34:59
1595294Tamasin Fyfe00:35:0100:35:01
1605389Leica Cooper00:35:0100:35:01
1615334Anna White00:35:0700:35:07
1625329Duncan White00:35:0800:35:08
1635290Daniel Slocombe00:35:0900:35:09
1645318John Arnott00:35:1200:35:12
1655319Amity Arnott00:35:1200:35:12
1665340Tammy Stanley00:35:1200:35:12
1675191Lily Mason00:35:2200:35:22
1685052Jasmine Kenzie00:35:2300:35:23
1695484Carol Miller00:35:3400:35:34
1705286Donna Emmerton00:35:3500:35:35
1715303Jane Fullarton00:35:5200:35:52
1725288Russell Steers00:35:5800:35:58
1735246Lisa Purton00:36:0000:36:00
1745002Natalie Luttrell00:36:1600:36:16
1755414lucy mchenry00:36:2100:36:21
1765123Theresa Stirling00:36:2600:36:26
1775011Henry Rollinson00:36:3000:36:30
1785010Luke Rollinson00:36:3100:36:31
1795327Lindi Quaile00:36:3300:36:33
1805180Marg Singline00:36:3700:36:37
1815298Bobbi Fleming00:36:4200:36:42
1825217STEPHEN SAINTY00:36:4400:36:44
1835379Lucy Philpott00:37:0300:37:03
1845049dion riley00:37:1100:37:11
1855449Katie Saltmarsh00:37:1700:37:17
1865207KYlah Horrack00:37:2000:37:20
1875122Xavier Bailey00:37:2400:37:24
1885027Mary Moore00:37:2500:37:25
1895120Janelle Bailey00:37:2500:37:25
1905141keith price00:37:2700:37:27
1915366Megan Warren00:37:3800:37:38
1925308Sophie Abraham00:37:3900:37:39
1935306Ian Abraham00:37:3900:37:39
1945055Wendy Brown00:37:4400:37:44
1955165JODI CLEMENTS00:37:4400:37:44
1965163JANE HEATLEY00:37:4600:37:46
1975375Toni Bray00:37:5400:37:54
1985009Rose Marton00:37:5700:37:57
1995446Nathan Fidler00:38:0000:38:00
2005293McKinley Lawler00:38:0100:38:01
2015468Gabrielle Pearce00:38:2000:38:20
2025198Andrew Woodward00:38:2300:38:23
2035415Paige Newnham00:38:2400:38:24
2045199Clare Woodward00:38:2700:38:27
2055269Lisa Orme00:38:3700:38:37
2065137Julie Wescombe00:38:5000:38:50
2075339Rebecca Cunningham00:38:5400:38:54
2085248Lizzie Park00:38:5700:38:57
2095309RILEY KUYS00:39:0000:39:00
2105168Gregory Smith00:39:0000:39:00
2115058Nina Horton00:39:0100:39:01
2125152Kaitlyn Carter00:39:0400:39:04
2135150Melissa Carter00:39:0900:39:09
2145333Melinda Saunders00:39:3900:39:39
2155422Kirk Pinner00:39:4300:39:43
2165402Elizabeth Campbell00:39:4500:39:45
2175356Alison McHenry00:40:0300:40:03
2185450Cadence Casey00:40:0700:40:07
2195186Glenn McLachlan00:40:0800:40:08
2205208Jenna Snare00:40:0800:40:08
2215209Robert Snare00:40:0900:40:09
2225112Andrea Cameron00:40:1500:40:15
2235354Tim Bates00:40:1700:40:17
2245355Matilda Bates00:40:1700:40:17
2255212Jeremy Smith00:40:2000:40:20
2265221TIMOTHY WOOD00:40:2100:40:21
2275249Scott Booth00:40:2800:40:28
2285030Jonathon Simons00:40:3300:40:33
2295307Samuel Abraham00:40:4600:40:46
2305311Ineke Crate00:40:5400:40:54
2315310Lyndal Bond00:40:5400:40:54
2325048judith riley00:41:1500:41:15
2335270Jenna Grice00:41:2900:41:29
2345272Megan Russell00:41:2900:41:29
2355381Sharon Roland00:41:4800:41:48
2365050Rachel Kenzie00:42:0500:42:05
2375478STEPHANIE JACKSON00:42:1500:42:15
2385500Jessica wyllie00:42:2000:42:20
2395499Olivia Wyllie00:42:2000:42:20
2405498Dale Elphinstone00:42:2100:42:21
2415496Kent Wyllie00:42:2100:42:21
2425117jill shepherd00:42:3600:42:36
2435471Olivia Ware00:42:4000:42:40
2445483Felicity Harris00:42:4100:42:41
2455495Kerrilee Maxfield00:42:4200:42:42
2465357Sarah Kimber00:42:4900:42:49
2475116Emma Van Gerwen00:42:5800:42:58
2485135Sarah Wood00:42:5900:42:59
2495425Chloe Evans00:43:1400:43:14
2505172Kylie Mulcahy00:43:1400:43:14
2515187Marlene Wilson00:43:1900:43:19
2525126Lydia Bramich00:43:2100:43:21
2535475Allison Davies00:43:2800:43:28
2545407Peter Mathew00:43:3700:43:37
2555416Satish Kumar00:43:4700:43:47
2565138Julia Wilson00:43:4700:43:47
2575435Tammy Lee00:44:0200:44:02
2585492Lucinda Wilson00:44:0900:44:09
2595238Elizabeth Marijic00:44:2200:44:22
2605289Marilyn Steers00:44:4700:44:47
2615105emily saunders00:44:5300:44:53
2625104timothy page00:44:5400:44:54
2635279Rickey Hilder00:45:0100:45:01
2645287Elywaty Hilder00:45:0100:45:01
2655089Sierra Sherriff00:45:1000:45:10
2665087Sally Brazendale00:45:1000:45:10
2675387Lynette Mathew00:45:1200:45:12
2685139Rick Wilson00:45:1300:45:13
2695142Fiona Knapman00:45:1300:45:13
2705143Edward Knapman00:45:1400:45:14
2715424Denys Ririka00:45:2000:45:20
2725392Merian Ellis00:45:2900:45:29
2735358Danielle Kidd00:45:2900:45:29
2745441Felicity White00:45:3100:45:31
2755086Jake Stevens00:45:3300:45:33
2765302Rebekah McWhirter00:45:3600:45:36
2775347Ruth Vercoe00:45:3600:45:36
2785497Cheryl Elphinstone00:45:4200:45:42
2795281Joan Hinkley00:45:4600:45:46
2805491Tyson Brooks00:45:5600:45:56
2815433Isabelle Duncan00:45:5900:45:59
2825360Meraj Khan00:46:1300:46:13
2835243Wendy Sharp00:46:1300:46:13
2845244Naomi French00:46:1400:46:14
2855241Lara Robertson00:46:1500:46:15
2865398Peter Evans00:46:1900:46:19
2875245COLLEEN DAVIDSON00:46:4200:46:42
2885213Rachael Rumery00:46:4600:46:46
2895324Amanda McPherson00:46:4700:46:47
2905015Karen House00:46:4800:46:48
2915214Nathan Rumery00:46:4800:46:48
2925280Reg Hinkley00:46:5200:46:52
2935278Mick Coleman00:46:5200:46:52
2945399Krystal Kennedy00:47:0300:47:03
2955216Corey Biggar00:47:0300:47:03
2965394Peter Slater00:47:0400:47:04
2975128Amanda McCoy00:47:0600:47:06
2985014Rachel Mallinson00:47:1400:47:14
2995047Anne O'Mahony00:47:1500:47:15
3005295Oliver deMeillon00:47:1900:47:19
3015282Justin Demeillon00:47:2000:47:20
3025323Anna Hughes00:47:2500:47:25
3035313Jane Brooks00:47:2600:47:26
3045176Rachel Burns00:47:3400:47:34
3055108SANDRA BROWN00:47:3600:47:36
3065068SAMUEL DOBBIE00:47:4200:47:42
3075066Clare Dobbie00:47:4300:47:43
3085192Sophie Burns00:47:5300:47:53
3095370Lisa Walker00:47:5900:47:59
3105131Debra Angilley00:48:0300:48:03
3115229Molly Plumbridge00:48:1200:48:12
3125230Emma Tobin00:48:1200:48:12
3135325Stuart Bigger00:48:2900:48:29
3145174Judy Scott00:48:4500:48:45
3155454aileen slatter00:48:4700:48:47
3165175Philip Scott00:48:4800:48:48
3175185Michelle Ainslie00:48:5000:48:50
3185097MELISSA BUTCHER00:48:5100:48:51
3195200jodie mccarthy00:48:5300:48:53
3205184Kiralee Schmidt00:48:5300:48:53
3215106Narelle Carter00:48:5400:48:54
3225071valiss short00:48:5800:48:58
3235072Liam McLaren00:48:5900:48:59
3245053David Simons00:49:0100:49:01
3255144Helen Van der Vlist00:49:1600:49:16
3265237Kristi Howard00:49:2300:49:23
3275224SARAH BATES00:49:2300:49:23
3285069beth jones00:49:3700:49:37
3295075Lori McFarlane00:49:4000:49:40
3305477kimbra Gleeson00:49:4900:49:49
3315476Deborah Scott00:49:5000:49:50
3325409Douglas Buckley00:49:5000:49:50
3335408Rick Nightingale00:49:5000:49:50
3345099LEANNE BATES00:50:0500:50:05
3355236Karen Howard00:50:0500:50:05
3365098HELEN WESTCOMBE00:50:0900:50:09
3375169Taylor Woodward00:50:3000:50:30
3385431Alison Broadby00:50:3600:50:36
3395430Jess Ryan00:50:4100:50:41
3405429Rebecca Melhuish00:50:4200:50:42
3415162JOSIE COOK00:50:4800:50:48
3425434Jennifer Duncan00:50:5100:50:51
3435073nolene short00:51:1900:51:19
3445479Joel Brennan00:51:3800:51:38
3455481Charli Brennan00:51:4100:51:41
3465395Debbie Bean00:51:4600:51:46
3475102Carol Denby00:51:5000:51:50
3485218Kathleen Kay00:51:5600:51:56
3495188Kiara Lavin00:51:5700:51:57
3505167Wendy Mason00:52:0700:52:07
3515439Joy Peach00:52:2500:52:25
3525006Christine Atkinson00:52:2500:52:25
3535332John Molloy00:52:3700:52:37
3545330Jo Molloy00:52:3700:52:37
3555036Leanne Bonney00:52:4800:52:48
3565061Charlotte Jaensch00:52:5000:52:50
3575060Lexie Jaensch00:52:5200:52:52
3585059Stephanie Jaensch00:52:5200:52:52
3595132Lynette Walker00:52:5400:52:54
3605133Lachlan Walker00:52:5500:52:55
3615170Judy Mason00:53:0300:53:03
3625140Lynne Price00:53:1500:53:15
3635154Karyn Lee00:53:1700:53:17
3645155Marilyn Maher00:53:1800:53:18
3655004Gregory Henry00:53:2100:53:21
3665005Marilyn Henry00:53:2200:53:22
3675227Justine Mutimer00:53:3200:53:32
3685205Alexandra Hyde00:53:3300:53:33
3695183Claire Turfrey00:53:3500:53:35
3705335Mary-Anne Glynn00:54:0600:54:06
3715026Trixie Duncan00:54:0700:54:07
3725451David Keygan00:54:1500:54:15
3735136Jennifer Crossman00:54:1900:54:19
3745016Anita McCall00:54:2500:54:25
3755017Michelle Musca00:54:2600:54:26
3765092holly plummer00:54:2600:54:26
3775103sharyn sturzaker00:54:2800:54:28
3785039Gaylene Cunningham00:54:2800:54:28
3795410Gene Elliott00:54:3700:54:37
3805226Kristen Smith00:54:5900:54:59
3815225JACK SMITH00:54:5900:54:59
3825464Nikki Dowling00:55:1000:55:10
3835463Jan Suter00:55:1000:55:10
3845283George Rautenbach00:55:2700:55:27
3855285Jeanette Pautenbach00:55:2700:55:27
3865043MARLENE MCGRATH00:55:3300:55:33
3875259Shannon Donnelly00:55:3300:55:33
3885258Brianna Donnelly00:55:3300:55:33
3895040SUZANNE LING00:55:3300:55:33
3905041GREGORY LING00:55:3400:55:34
3915487Elizabeth Jetson00:55:3800:55:38
3925486Thomas Goss00:55:3900:55:39
3935063RAMARNA McCULLOCH00:55:4500:55:45
3945062J'ANNETT McCULLOCH00:55:4600:55:46
3955397Barry Birchall00:55:5100:55:51
3965299QJoan Pettman00:56:0400:56:04
3975110Graham Baly00:56:0500:56:05
3985109Lindy Baly00:56:0500:56:05
3995386Sharon Williams00:57:0000:57:00
4005376Kelly Stubbs00:57:0000:57:00
4015196Grant Radford00:57:0300:57:03
4025193Erin Hurley00:57:0400:57:04
4035197Alison Radford00:57:0400:57:04
4045419Linda Laycock00:57:1400:57:14
4055420Joel Laycock00:57:1500:57:15
4065284Paul Young00:57:2600:57:26
4075461Willliam Halfacre00:57:3500:57:35
4085462Ella Dummit00:57:3500:57:35
4095458Dylan Halfacre00:57:4900:57:49
4105460Emma Halfacre00:58:0100:58:01
4115114Robyn Newman00:58:0900:58:09
4125077Chimay Mcpherson00:59:3600:59:36
4135076Bernadette Mcpherson00:59:3800:59:38
4145202BLAIR MICALE00:59:5200:59:52
4155166Phillip Micale00:59:5400:59:54
4165204Lesley Ririka01:00:1601:00:16
4175035Dennis Spurling01:00:4501:00:45
4185034Kaye Spurling01:00:4701:00:47
4195400Peta Skurrie01:00:5601:00:56
4205085Anthony Downey01:01:1501:01:15
4215115Hannah Newman01:01:1601:01:16
4225024Lissie Rustage01:04:1501:04:15
4235025Sue Matchett01:04:1501:04:15
4245255Michelle McArdell01:05:1201:05:12
4255119Gordon Durose01:05:1901:05:19
4265057Lisa-Jane Goss01:05:2101:05:21
4275406Kendawl Riley01:05:2301:05:23
4285490Tammy Clarke01:05:5301:05:53
4295396Benjamin Hills01:05:5401:05:54
4305253Kathryn Weekes01:06:0101:06:01
4315344Stephanie Brooks01:09:1201:09:12
4325171Shantelle Brooks01:09:1301:09:13
Search Indivdual Results
View Team Results